createdAt,value
2019-02-14T00:00:00.618Z,2.73
2019-02-14T00:02:27.582Z,2.82
2019-02-14T00:04:55.487Z,2.89
2019-02-14T00:07:22.245Z,2.89
2019-02-14T00:09:51.637Z,2.91
2019-02-14T00:12:18.437Z,2.84
2019-02-14T00:14:45.514Z,2.75
2019-02-14T00:17:12.217Z,2.72
2019-02-14T00:19:39.297Z,2.59
2019-02-14T00:22:06.456Z,2.59
2019-02-14T00:24:33.271Z,2.61
2019-02-14T00:27:00.010Z,2.64
2019-02-14T00:29:30.259Z,2.60
2019-02-14T00:31:56.963Z,2.69
2019-02-14T00:34:26.712Z,2.70
2019-02-14T00:36:54.159Z,2.64
2019-02-14T00:39:21.313Z,2.67
2019-02-14T00:41:48.168Z,2.63
2019-02-14T00:44:14.859Z,2.70
2019-02-14T00:46:43.462Z,2.58
2019-02-14T00:49:10.151Z,2.69
2019-02-14T00:51:36.883Z,2.80
2019-02-14T00:54:03.951Z,2.75
2019-02-14T00:56:30.783Z,2.70
2019-02-14T00:58:58.461Z,2.49
2019-02-14T01:01:25.173Z,2.46
2019-02-14T01:03:51.952Z,2.47
2019-02-14T01:06:18.695Z,2.38
2019-02-14T01:08:45.533Z,2.07
2019-02-14T01:11:12.279Z,1.83
2019-02-14T01:13:39.056Z,1.85
2019-02-14T01:16:05.909Z,2.00
2019-02-14T01:18:33.027Z,2.13
2019-02-14T01:20:59.831Z,2.12
2019-02-14T01:23:26.661Z,2.18
2019-02-14T01:25:54.903Z,2.30
2019-02-14T01:28:21.709Z,2.28
2019-02-14T01:30:48.565Z,2.29
2019-02-14T01:33:15.403Z,2.46
2019-02-14T01:35:42.484Z,2.43
2019-02-14T01:38:09.214Z,2.32
2019-02-14T01:40:35.940Z,2.38
2019-02-14T01:43:02.679Z,2.30
2019-02-14T01:45:29.406Z,2.31
2019-02-14T01:47:56.276Z,2.26
2019-02-14T01:50:23.421Z,2.13
2019-02-14T01:52:50.160Z,2.11
2019-02-14T01:55:17.041Z,2.05
2019-02-14T01:57:43.775Z,2.09
2019-02-14T02:00:13.427Z,2.17
2019-02-14T02:02:40.266Z,2.22
2019-02-14T02:05:06.994Z,2.21
2019-02-14T02:07:33.797Z,2.22
2019-02-14T02:10:00.613Z,1.91
2019-02-14T02:12:28.096Z,1.85
2019-02-14T02:14:54.814Z,1.88
2019-02-14T02:17:23.195Z,1.96
2019-02-14T02:19:50.240Z,1.76
2019-02-14T02:22:17.304Z,1.50
2019-02-14T02:24:44.069Z,1.43
2019-02-14T02:27:10.822Z,1.35
2019-02-14T02:29:37.649Z,1.37
2019-02-14T02:32:04.392Z,1.48
2019-02-14T02:34:34.050Z,1.58
2019-02-14T02:37:00.805Z,1.66
2019-02-14T02:39:27.554Z,1.53
2019-02-14T02:41:54.283Z,1.52
2019-02-14T02:44:21.024Z,1.58
2019-02-14T02:46:48.176Z,1.59
2019-02-14T02:49:15.032Z,1.63
2019-02-14T02:51:45.505Z,1.68
2019-02-14T02:54:12.230Z,1.77
2019-02-14T02:56:39.406Z,1.73
2019-02-14T02:59:06.237Z,1.76
2019-02-14T03:01:32.954Z,1.71
2019-02-14T03:03:59.658Z,1.72
2019-02-14T03:06:26.360Z,1.69
2019-02-14T03:08:55.738Z,1.74
2019-02-14T03:11:22.436Z,1.84
2019-02-14T03:13:49.188Z,1.88
2019-02-14T03:16:16.250Z,1.50
2019-02-14T03:18:44.290Z,1.26
2019-02-14T03:21:11.014Z,1.15
2019-02-14T03:23:38.108Z,1.22
2019-02-14T03:26:04.958Z,1.08
2019-02-14T03:28:31.732Z,1.05
2019-02-14T03:30:58.870Z,1.19
2019-02-14T03:33:25.938Z,1.10
2019-02-14T03:35:52.640Z,1.16
2019-02-14T03:38:19.391Z,1.21
2019-02-14T03:40:48.698Z,1.25
2019-02-14T03:43:15.437Z,1.37
2019-02-14T03:45:42.144Z,1.35
2019-02-14T03:48:08.880Z,1.30
2019-02-14T03:50:35.634Z,1.11
2019-02-14T03:53:02.385Z,1.04
2019-02-14T03:55:29.304Z,1.14
2019-02-14T03:57:56.090Z,1.14
2019-02-14T04:00:23.968Z,1.15
2019-02-14T04:02:50.808Z,1.21
2019-02-14T04:05:17.930Z,1.23
2019-02-14T04:07:44.698Z,1.40
2019-02-14T04:10:14.232Z,1.47
2019-02-14T04:12:41.298Z,1.49
2019-02-14T04:15:10.936Z,1.44
2019-02-14T04:17:37.776Z,1.38
2019-02-14T04:20:05.614Z,1.39
2019-02-14T04:22:32.338Z,1.32
2019-02-14T04:24:59.140Z,1.39
2019-02-14T04:27:25.945Z,1.37
2019-02-14T04:29:54.744Z,1.25
2019-02-14T04:32:21.717Z,1.20
2019-02-14T04:34:48.639Z,1.22
2019-02-14T04:37:15.392Z,1.29
2019-02-14T04:39:42.421Z,1.35
2019-02-14T04:42:09.241Z,1.31
2019-02-14T04:44:36.070Z,1.32
2019-02-14T04:47:04.030Z,1.23
2019-02-14T04:49:30.914Z,1.17
2019-02-14T04:52:02.294Z,1.17
2019-02-14T04:54:29.198Z,1.21
2019-02-14T04:56:56.321Z,1.25
2019-02-14T04:59:23.068Z,1.28
2019-02-14T05:01:50.132Z,1.25
2019-02-14T05:04:16.988Z,1.18
2019-02-14T05:06:44.475Z,1.15
2019-02-14T05:09:11.413Z,1.07
2019-02-14T05:11:38.269Z,1.04
2019-02-14T05:14:10.115Z,0.89
2019-02-14T05:16:36.958Z,0.78
2019-02-14T05:19:03.945Z,0.56
2019-02-14T05:21:30.654Z,0.73
2019-02-14T05:23:57.696Z,0.59
2019-02-14T05:26:24.794Z,0.59
2019-02-14T05:28:51.897Z,0.82
2019-02-14T05:31:18.787Z,0.89
2019-02-14T05:33:48.635Z,0.98
2019-02-14T05:36:17.629Z,1.00
2019-02-14T05:38:44.588Z,0.93
2019-02-14T05:41:11.474Z,0.88
2019-02-14T05:43:38.240Z,0.99
2019-02-14T05:46:05.367Z,1.03
2019-02-14T05:48:32.258Z,1.06
2019-02-14T05:50:59.014Z,1.07
2019-02-14T05:53:25.773Z,1.00
2019-02-14T05:55:52.532Z,0.95
2019-02-14T05:58:19.374Z,0.98
2019-02-14T06:00:46.412Z,0.95
2019-02-14T06:03:13.248Z,0.94
2019-02-14T06:05:39.970Z,0.99
2019-02-14T06:08:06.882Z,1.07
2019-02-14T06:10:33.600Z,1.07
2019-02-14T06:13:00.303Z,1.15
2019-02-14T06:15:27.255Z,1.09
2019-02-14T06:17:53.991Z,1.04
2019-02-14T06:20:22.854Z,1.10
2019-02-14T06:22:49.816Z,1.03
2019-02-14T06:25:16.699Z,0.93
2019-02-14T06:27:43.618Z,0.98
2019-02-14T06:30:11.611Z,0.96
2019-02-14T06:32:38.768Z,1.00
2019-02-14T06:35:06.683Z,1.02
2019-02-14T06:37:33.636Z,0.98
2019-02-14T06:40:01.153Z,1.04
2019-02-14T06:42:28.567Z,1.02
2019-02-14T06:44:58.188Z,1.11
2019-02-14T06:47:25.063Z,1.12
2019-02-14T06:49:52.111Z,1.11
2019-02-14T06:52:18.904Z,1.10
2019-02-14T06:54:45.642Z,1.03
2019-02-14T06:57:12.527Z,1.03
2019-02-14T06:59:39.622Z,0.90
2019-02-14T07:02:06.725Z,0.88
2019-02-14T07:04:33.677Z,0.91
2019-02-14T07:07:01.047Z,0.98
2019-02-14T07:09:28.957Z,1.00
2019-02-14T07:11:55.815Z,1.01
2019-02-14T07:14:23.279Z,0.95
2019-02-14T07:16:49.967Z,1.08
2019-02-14T07:19:16.715Z,1.14
2019-02-14T07:21:44.682Z,1.16
2019-02-14T07:24:11.555Z,1.11
2019-02-14T07:26:38.552Z,1.10
2019-02-14T07:29:05.405Z,1.08
2019-02-14T07:31:32.239Z,1.11
2019-02-14T07:33:59.070Z,1.08
2019-02-14T07:36:26.180Z,1.14
2019-02-14T07:38:58.278Z,1.19
2019-02-14T07:41:26.453Z,1.19
2019-02-14T07:43:53.387Z,1.19
2019-02-14T07:46:22.724Z,1.01
2019-02-14T07:48:48.963Z,1.17
2019-02-14T07:51:16.175Z,1.28
2019-02-14T07:53:43.013Z,1.26
2019-02-14T07:56:09.784Z,1.34
2019-02-14T07:58:36.695Z,1.39
2019-02-14T08:01:03.536Z,1.43
2019-02-14T08:03:30.378Z,1.43
2019-02-14T08:05:57.153Z,1.45
2019-02-14T08:08:23.900Z,1.45
2019-02-14T08:10:52.581Z,1.52
2019-02-14T08:13:19.337Z,1.53
2019-02-14T08:15:49.113Z,1.66
2019-02-14T08:18:18.503Z,1.75
2019-02-14T08:20:45.286Z,1.73
2019-02-14T08:23:12.191Z,1.67
2019-02-14T08:25:39.127Z,1.78
2019-02-14T08:28:06.070Z,1.85
2019-02-14T08:30:33.083Z,2.03
2019-02-14T08:33:00.142Z,2.03
2019-02-14T08:35:27.209Z,2.02
2019-02-14T08:37:54.141Z,2.09
2019-02-14T08:40:23.729Z,2.16
2019-02-14T08:42:50.471Z,2.27
2019-02-14T08:45:17.963Z,2.55
2019-02-14T08:47:45.031Z,2.73
2019-02-14T08:50:11.792Z,2.83
2019-02-14T08:52:39.195Z,3.04
2019-02-14T08:55:06.017Z,3.06
2019-02-14T08:57:32.869Z,3.00
2019-02-14T08:59:59.656Z,2.96
2019-02-14T09:02:26.408Z,3.04
2019-02-14T09:04:53.206Z,3.21
2019-02-14T09:07:20.158Z,3.31
2019-02-14T09:09:47.184Z,3.39
2019-02-14T09:12:15.271Z,3.52
2019-02-14T09:14:42.311Z,3.68
2019-02-14T09:17:12.973Z,3.69
2019-02-14T09:19:42.219Z,3.78
2019-02-14T09:22:09.599Z,3.98
2019-02-14T09:24:36.402Z,4.17
2019-02-14T09:27:03.277Z,4.31
2019-02-14T09:29:30.094Z,4.42
2019-02-14T09:31:57.382Z,4.58
2019-02-14T09:34:24.139Z,4.72
2019-02-14T09:36:50.873Z,4.85
2019-02-14T09:39:17.599Z,4.87
2019-02-14T09:41:44.268Z,4.88
2019-02-14T09:44:11.469Z,4.88
2019-02-14T09:46:38.324Z,5.10
2019-02-14T09:49:05.237Z,5.32
2019-02-14T09:51:32.306Z,5.48
2019-02-14T09:54:01.403Z,5.59
2019-02-14T09:56:28.328Z,5.60
2019-02-14T09:58:55.104Z,5.76
2019-02-14T10:01:22.436Z,5.83
2019-02-14T10:03:49.585Z,5.94
2019-02-14T10:06:19.427Z,6.22
2019-02-14T10:08:49.035Z,6.31
2019-02-14T10:11:18.114Z,6.44
2019-02-14T10:13:46.036Z,6.51
2019-02-14T10:16:12.900Z,6.51
2019-02-14T10:18:39.672Z,6.73
2019-02-14T10:21:10.433Z,6.73
2019-02-14T10:23:37.403Z,6.83
2019-02-14T10:26:04.158Z,6.96
2019-02-14T10:28:31.177Z,7.18
2019-02-14T10:30:59.624Z,7.18
2019-02-14T10:33:27.883Z,7.37
2019-02-14T10:35:56.594Z,7.46
2019-02-14T10:38:23.529Z,7.46
2019-02-14T10:40:50.800Z,7.64
2019-02-14T10:43:17.618Z,7.71
2019-02-14T10:45:44.810Z,7.71
2019-02-14T10:48:11.826Z,7.79
2019-02-14T10:50:38.970Z,7.82
2019-02-14T10:53:05.778Z,8.10
2019-02-14T10:55:32.524Z,8.10
2019-02-14T10:57:59.388Z,8.23
2019-02-14T11:00:26.530Z,8.33
2019-02-14T11:02:53.278Z,8.33
2019-02-14T11:05:20.523Z,8.37
2019-02-14T11:07:47.271Z,8.53
2019-02-14T11:10:15.316Z,8.66
2019-02-14T11:12:42.395Z,8.75
2019-02-14T11:15:10.281Z,8.85
2019-02-14T11:17:39.190Z,8.82
2019-02-14T11:20:07.954Z,8.82
2019-02-14T11:22:34.666Z,8.92
2019-02-14T11:25:01.592Z,9.05
2019-02-14T11:27:28.486Z,9.18
2019-02-14T11:29:55.308Z,9.28
2019-02-14T11:32:22.036Z,9.34
2019-02-14T11:34:49.016Z,9.44
2019-02-14T11:37:16.721Z,9.46
2019-02-14T11:39:45.056Z,9.54
2019-02-14T11:42:12.468Z,9.64
2019-02-14T11:44:42.699Z,9.81
2019-02-14T11:47:09.461Z,9.90
2019-02-14T11:49:37.220Z,9.97
2019-02-14T11:52:08.343Z,10.00
2019-02-14T11:54:35.118Z,10.02
2019-02-14T11:57:01.943Z,10.14
2019-02-14T11:59:28.965Z,10.25
2019-02-14T12:01:55.805Z,10.39
2019-02-14T12:04:22.647Z,10.48
2019-02-14T12:06:49.825Z,10.66
2019-02-14T12:09:16.631Z,10.71
2019-02-14T12:11:43.652Z,10.76
2019-02-14T12:14:10.352Z,10.82
2019-02-14T12:16:39.229Z,10.95
2019-02-14T12:19:06.446Z,11.06
2019-02-14T12:21:33.288Z,11.18
2019-02-14T12:24:00.464Z,11.25
2019-02-14T12:26:27.876Z,11.35
2019-02-14T12:28:54.862Z,11.39
2019-02-14T12:31:21.708Z,11.47
2019-02-14T12:33:48.602Z,11.54
2019-02-14T12:36:18.101Z,11.68
2019-02-14T12:38:44.823Z,11.80
2019-02-14T12:41:11.790Z,11.95
2019-02-14T12:43:38.746Z,12.10
2019-02-14T12:46:05.732Z,12.31
2019-02-14T12:48:32.866Z,12.41
2019-02-14T12:50:59.865Z,12.49
2019-02-14T12:53:28.726Z,12.61
2019-02-14T12:55:55.482Z,12.68
2019-02-14T12:58:22.857Z,12.79
2019-02-14T13:00:49.744Z,12.94
2019-02-14T13:03:16.580Z,13.17
2019-02-14T13:05:46.261Z,13.37
2019-02-14T13:08:13.081Z,13.45
2019-02-14T13:10:40.325Z,13.46
2019-02-14T13:13:07.197Z,13.62
2019-02-14T13:15:34.282Z,13.72
2019-02-14T13:18:01.046Z,13.89
2019-02-14T13:20:27.806Z,14.04
2019-02-14T13:22:54.653Z,14.11
2019-02-14T13:25:23.386Z,14.33
2019-02-14T13:27:50.195Z,14.55
2019-02-14T13:30:19.220Z,14.65
2019-02-14T13:32:45.958Z,14.82
2019-02-14T13:35:12.674Z,14.87
2019-02-14T13:37:40.407Z,14.79
2019-02-14T13:40:07.611Z,14.79
2019-02-14T13:42:34.389Z,14.81
2019-02-14T13:45:01.244Z,14.88
2019-02-14T13:47:28.050Z,15.09
2019-02-14T13:49:54.791Z,15.48
2019-02-14T13:52:21.498Z,15.77
2019-02-14T13:54:48.245Z,15.97
2019-02-14T13:57:15.299Z,16.22
2019-02-14T13:59:42.067Z,16.42
2019-02-14T14:02:09.363Z,16.60
2019-02-14T14:04:36.079Z,16.51
2019-02-14T14:07:03.206Z,16.45
2019-02-14T14:09:38.247Z,16.48
2019-02-14T14:11:58.599Z,16.48
2019-02-14T14:14:25.677Z,16.54
2019-02-14T14:16:52.409Z,16.66
2019-02-14T14:19:19.304Z,16.71
2019-02-14T14:21:46.060Z,16.81
2019-02-14T14:24:12.971Z,16.81
2019-02-14T14:26:39.861Z,16.91
2019-02-14T14:29:09.404Z,17.01
2019-02-14T14:31:36.263Z,16.46
2019-02-14T14:34:03.125Z,16.50
2019-02-14T14:36:30.627Z,16.46
2019-02-14T14:38:57.812Z,16.18
2019-02-14T14:41:27.431Z,16.10
2019-02-14T14:44:02.492Z,16.01
2019-02-14T14:46:33.570Z,15.56
2019-02-14T14:49:00.532Z,15.18
2019-02-14T14:51:27.254Z,15.02
2019-02-14T14:53:57.317Z,14.98
2019-02-14T14:56:24.130Z,15.04
2019-02-14T14:58:51.073Z,15.06
2019-02-14T15:01:17.943Z,14.99
2019-02-14T15:03:45.194Z,14.92
2019-02-14T15:06:15.008Z,14.84
2019-02-14T15:08:42.001Z,14.65
2019-02-14T15:11:09.031Z,14.64
2019-02-14T15:13:39.980Z,14.68
2019-02-14T15:16:08.150Z,14.73
2019-02-14T15:18:34.873Z,14.70
2019-02-14T15:21:01.755Z,14.61
2019-02-14T15:23:29.259Z,14.47
2019-02-14T15:25:56.226Z,14.44
2019-02-14T15:28:25.281Z,14.38
2019-02-14T15:30:52.107Z,14.36
2019-02-14T15:33:19.022Z,14.21
2019-02-14T15:35:45.899Z,14.18
2019-02-14T15:38:13.078Z,14.14
2019-02-14T15:40:39.847Z,14.09
2019-02-14T15:43:06.689Z,14.04
2019-02-14T15:45:35.011Z,14.05
2019-02-14T15:48:02.111Z,13.91
2019-02-14T15:50:29.998Z,13.74
2019-02-14T15:52:57.995Z,13.69
2019-02-14T15:55:25.106Z,13.67
2019-02-14T15:57:52.193Z,13.56
2019-02-14T16:00:18.968Z,13.43
2019-02-14T16:02:47.773Z,13.36
2019-02-14T16:05:16.526Z,13.32
2019-02-14T16:07:43.451Z,13.17
2019-02-14T16:10:18.257Z,13.14
2019-02-14T16:12:41.091Z,13.06
2019-02-14T16:15:09.104Z,12.95
2019-02-14T16:17:37.458Z,12.76
2019-02-14T16:20:04.631Z,12.56
2019-02-14T16:22:34.580Z,12.41
2019-02-14T16:25:02.669Z,12.34
2019-02-14T16:27:30.189Z,12.31
2019-02-14T16:29:56.928Z,12.23
2019-02-14T16:32:24.411Z,12.20
2019-02-14T16:34:51.387Z,12.06
2019-02-14T16:37:18.411Z,12.06
2019-02-14T16:39:51.548Z,11.96
2019-02-14T16:42:14.159Z,11.93
2019-02-14T16:44:41.362Z,11.94
2019-02-14T16:47:08.488Z,11.91
2019-02-14T16:49:35.257Z,11.83
2019-02-14T16:52:02.059Z,11.80
2019-02-14T16:54:28.951Z,11.76
2019-02-14T16:56:55.831Z,11.72
2019-02-14T16:59:22.867Z,11.62
2019-02-14T17:01:49.683Z,11.50
2019-02-14T17:04:18.289Z,11.44
2019-02-14T17:06:45.220Z,11.31
2019-02-14T17:09:12.443Z,11.21
2019-02-14T17:11:39.323Z,11.15
2019-02-14T17:14:06.305Z,11.03
2019-02-14T17:16:33.393Z,10.97
2019-02-14T17:19:00.275Z,10.87
2019-02-14T17:21:27.072Z,10.80
2019-02-14T17:23:54.007Z,10.77
2019-02-14T17:26:21.087Z,10.74
2019-02-14T17:28:47.936Z,10.70
2019-02-14T17:31:14.761Z,10.66
2019-02-14T17:33:41.483Z,10.55
2019-02-14T17:36:08.297Z,10.52
2019-02-14T17:38:35.192Z,10.45
2019-02-14T17:41:02.135Z,10.39
2019-02-14T17:43:29.466Z,10.32
2019-02-14T17:45:56.204Z,10.25
2019-02-14T17:48:23.100Z,10.16
2019-02-14T17:50:50.203Z,10.12
2019-02-14T17:53:17.407Z,10.08
2019-02-14T17:55:44.179Z,10.05
2019-02-14T17:58:10.941Z,10.01
2019-02-14T18:00:39.653Z,9.90
2019-02-14T18:03:06.574Z,9.83
2019-02-14T18:05:33.499Z,9.74
2019-02-14T18:08:00.681Z,9.62
2019-02-14T18:10:27.642Z,9.53
2019-02-14T18:12:55.786Z,9.44
2019-02-14T18:15:23.115Z,9.39
2019-02-14T18:17:49.873Z,9.41
2019-02-14T18:20:16.606Z,9.38
2019-02-14T18:22:43.363Z,9.38
2019-02-14T18:25:10.906Z,9.34
2019-02-14T18:27:38.044Z,9.27
2019-02-14T18:30:05.788Z,9.24
2019-02-14T18:32:32.578Z,9.17
2019-02-14T18:34:59.354Z,9.08
2019-02-14T18:37:26.152Z,8.94
2019-02-14T18:39:55.852Z,8.92
2019-02-14T18:42:22.613Z,8.84
2019-02-14T18:44:49.318Z,8.75
2019-02-14T18:47:16.390Z,8.72
2019-02-14T18:49:43.401Z,8.57
2019-02-14T18:52:10.324Z,8.54
2019-02-14T18:54:37.171Z,8.48
2019-02-14T18:57:04.258Z,8.31
2019-02-14T18:59:31.093Z,8.23
2019-02-14T19:01:57.886Z,8.17
2019-02-14T19:04:24.834Z,8.10
2019-02-14T19:06:52.010Z,8.02
2019-02-14T19:09:19.363Z,7.92
2019-02-14T19:11:49.434Z,7.85
2019-02-14T19:14:16.564Z,7.71
2019-02-14T19:16:43.459Z,7.53
2019-02-14T19:19:10.278Z,7.51
2019-02-14T19:21:37.074Z,7.57
2019-02-14T19:24:04.021Z,7.50
2019-02-14T19:26:30.734Z,7.53
2019-02-14T19:28:57.691Z,7.47
2019-02-14T19:31:24.532Z,7.41
2019-02-14T19:33:51.453Z,7.41
2019-02-14T19:36:18.249Z,7.30
2019-02-14T19:38:45.087Z,7.24
2019-02-14T19:41:11.952Z,7.26
2019-02-14T19:43:38.752Z,7.23
2019-02-14T19:46:05.522Z,7.11
2019-02-14T19:48:32.458Z,7.07
2019-02-14T19:50:59.440Z,6.96
2019-02-14T19:53:26.190Z,6.92
2019-02-14T19:55:54.247Z,6.93
2019-02-14T19:58:21.054Z,7.01
2019-02-14T20:00:47.888Z,7.09
2019-02-14T20:03:14.665Z,7.08
2019-02-14T20:05:41.445Z,6.97
2019-02-14T20:08:10.165Z,6.92
2019-02-14T20:10:37.287Z,6.89
2019-02-14T20:13:04.030Z,6.92
2019-02-14T20:15:37.357Z,6.90
2019-02-14T20:18:01.916Z,6.83
2019-02-14T20:20:31.853Z,6.75
2019-02-14T20:22:58.633Z,6.61
2019-02-14T20:25:27.920Z,6.51
2019-02-14T20:27:55.331Z,6.43
2019-02-14T20:30:24.945Z,6.31
2019-02-14T20:32:52.377Z,6.22
2019-02-14T20:35:19.178Z,6.16
2019-02-14T20:37:46.199Z,6.16
2019-02-14T20:40:13.018Z,6.24
2019-02-14T20:42:40.075Z,6.22
2019-02-14T20:45:07.888Z,6.18
2019-02-14T20:47:34.758Z,6.20
2019-02-14T20:50:01.531Z,6.20
2019-02-14T20:52:28.341Z,6.09
2019-02-14T20:54:55.236Z,6.06
2019-02-14T20:57:22.074Z,5.98
2019-02-14T20:59:48.802Z,5.99
2019-02-14T21:02:17.656Z,5.92
2019-02-14T21:04:44.545Z,5.81
2019-02-14T21:07:11.317Z,5.74
2019-02-14T21:09:38.063Z,5.68
2019-02-14T21:12:04.829Z,5.72
2019-02-14T21:14:31.826Z,5.72
2019-02-14T21:16:58.585Z,5.52
2019-02-14T21:19:25.416Z,5.46
2019-02-14T21:21:52.160Z,5.38
2019-02-14T21:24:19.206Z,5.38
2019-02-14T21:26:46.470Z,5.35
2019-02-14T21:29:13.534Z,5.26
2019-02-14T21:31:40.279Z,5.26
2019-02-14T21:34:07.468Z,4.99
2019-02-14T21:36:34.696Z,5.03
2019-02-14T21:39:01.611Z,4.92
2019-02-14T21:41:30.556Z,4.92
2019-02-14T21:43:57.539Z,4.95
2019-02-14T21:46:24.289Z,4.90
2019-02-14T21:48:51.228Z,4.73
2019-02-14T21:51:18.415Z,4.73
2019-02-14T21:53:45.163Z,4.76
2019-02-14T21:56:12.114Z,4.71
2019-02-14T21:58:39.602Z,4.55
2019-02-14T22:01:06.690Z,4.55
2019-02-14T22:03:33.605Z,4.20
2019-02-14T22:06:00.904Z,4.28
2019-02-14T22:08:28.149Z,4.28
2019-02-14T22:10:55.111Z,4.21
2019-02-14T22:13:22.135Z,4.29
2019-02-14T22:15:48.972Z,4.29
2019-02-14T22:18:15.784Z,4.31
2019-02-14T22:20:44.541Z,4.28
2019-02-14T22:23:11.413Z,4.28
2019-02-14T22:25:41.281Z,4.22
2019-02-14T22:28:08.129Z,4.21
2019-02-14T22:30:34.957Z,4.27
2019-02-14T22:33:01.755Z,4.14
2019-02-14T22:35:28.959Z,4.17
2019-02-14T22:37:55.974Z,4.26
2019-02-14T22:40:22.691Z,4.36
2019-02-14T22:42:51.688Z,4.35
2019-02-14T22:45:18.464Z,4.31
2019-02-14T22:47:45.217Z,4.33
2019-02-14T22:50:11.952Z,4.24
2019-02-14T22:52:38.775Z,4.25
2019-02-14T22:55:06.371Z,4.33
2019-02-14T22:57:33.062Z,4.14
2019-02-14T22:59:59.781Z,4.27
2019-02-14T23:02:26.519Z,4.31
2019-02-14T23:04:53.263Z,4.22
2019-02-14T23:07:20.016Z,3.70
2019-02-14T23:09:46.717Z,3.70
2019-02-14T23:12:13.471Z,3.47
2019-02-14T23:14:40.371Z,3.38
2019-02-14T23:17:07.087Z,3.44
2019-02-14T23:19:33.830Z,3.25
2019-02-14T23:22:01.373Z,3.47
2019-02-14T23:24:28.169Z,3.40
2019-02-14T23:26:55.017Z,3.45
2019-02-14T23:29:21.795Z,3.38
2019-02-14T23:31:48.566Z,3.29
2019-02-14T23:34:15.299Z,3.14
2019-02-14T23:36:42.025Z,3.25
2019-02-14T23:39:08.848Z,3.42
2019-02-14T23:41:35.586Z,3.48
2019-02-14T23:44:02.432Z,3.32
2019-02-14T23:46:29.151Z,3.20
2019-02-14T23:48:55.886Z,3.32
2019-02-14T23:51:22.614Z,3.35
2019-02-14T23:53:52.249Z,3.29
2019-02-14T23:56:21.335Z,3.16
2019-02-14T23:58:48.235Z,3.18
